Time;durP1;ratioP1;P1;durP2;ratioP2;P2;SDS_P1;SDS_P2;PMS_P1;PMS_P2;Temp;Humidity;BMP_temperature;BMP_pressure;BME280_temperature;BME280_humidity;BME280_pressure;Samples;Min_cycle;Max_cycle;Signal;HPM_P1;HPM_P2
2021/12/18 00:00:06;;;;;;;23.27;11.75;;;;;;;;;;4916976;29;20028;-63
2021/12/18 00:02:32;;;;;;;22.52;12.02;;;;;;;;;;4917206;29;20036;-63
2021/12/18 00:04:58;;;;;;;27.63;13.30;;;;;;;;;;4917509;29;20034;-63
2021/12/18 00:07:24;;;;;;;26.55;11.80;;;;;;;;;;4928397;29;20027;-62
2021/12/18 00:09:52;;;;;;;21.30;10.60;;;;;;;;;;4936249;29;20031;-63
2021/12/18 00:12:18;;;;;;;26.20;11.38;;;;;;;;;;4935997;29;20043;-63
2021/12/18 00:14:45;;;;;;;18.95;9.98;;;;;;;;;;4931829;29;20540;-63
2021/12/18 00:17:11;;;;;;;23.42;10.88;;;;;;;;;;4917048;29;20172;-64
2021/12/18 00:19:37;;;;;;;21.98;11.05;;;;;;;;;;4917099;29;20024;-64
2021/12/18 00:22:03;;;;;;;21.92;10.75;;;;;;;;;;4916996;29;20103;-63
2021/12/18 00:24:32;;;;;;;23.05;10.73;;;;;;;;;;4916992;29;20115;-63
2021/12/18 00:26:58;;;;;;;23.50;10.90;;;;;;;;;;4916232;29;20576;-63
2021/12/18 00:29:24;;;;;;;20.50;10.55;;;;;;;;;;4916951;29;20388;-63
2021/12/18 00:31:51;;;;;;;18.40;10.52;;;;;;;;;;4916890;29;20039;-63
2021/12/18 00:34:18;;;;;;;18.95;10.32;;;;;;;;;;4916707;29;20060;-63
2021/12/18 00:36:44;;;;;;;22.40;11.07;;;;;;;;;;4916757;29;20024;-63
2021/12/18 00:39:10;;;;;;;23.05;11.25;;;;;;;;;;4916941;29;20028;-63
2021/12/18 00:44:13;;;;;;;18.45;9.50;;;;;;;;;;4916529;29;20110;-63
2021/12/18 00:46:41;;;;;;;21.40;10.80;;;;;;;;;;4916931;29;20028;-64
2021/12/18 00:49:08;;;;;;;23.35;11.00;;;;;;;;;;4916631;29;20499;-64
2021/12/18 00:51:35;;;;;;;18.77;9.98;;;;;;;;;;4916563;29;20229;-64
2021/12/18 00:54:01;;;;;;;21.30;10.55;;;;;;;;;;4916632;29;20059;-63
2021/12/18 00:56:27;;;;;;;20.95;10.52;;;;;;;;;;4916799;29;20024;-63
2021/12/18 00:58:53;;;;;;;30.35;13.43;;;;;;;;;;4916373;29;20048;-63
2021/12/18 01:01:21;;;;;;;28.98;13.80;;;;;;;;;;4916191;29;20123;-63
2021/12/18 01:03:48;;;;;;;21.00;10.38;;;;;;;;;;4916478;29;20571;-63
2021/12/18 01:06:14;;;;;;;18.90;9.88;;;;;;;;;;4916261;29;20079;-63
2021/12/18 01:08:40;;;;;;;15.73;9.27;;;;;;;;;;4916464;29;20036;-63
2021/12/18 01:13:38;;;;;;;19.40;9.60;;;;;;;;;;4915825;29;20056;-63
2021/12/18 01:16:13;;;;;;;18.08;10.23;;;;;;;;;;4916162;29;20020;-63
2021/12/18 01:24:09;;;;;;;20.20;10.38;;;;;;;;;;4915875;29;20075;-63
2021/12/18 01:26:35;;;;;;;21.60;10.23;;;;;;;;;;4915946;29;20036;-63
2021/12/18 01:29:01;;;;;;;25.55;9.80;;;;;;;;;;4915779;29;20024;-63
2021/12/18 01:31:27;;;;;;;22.85;11.10;;;;;;;;;;4915910;29;20032;-63
2021/12/18 01:33:53;;;;;;;18.60;10.07;;;;;;;;;;4916012;29;20119;-63
2021/12/18 01:36:21;;;;;;;19.80;10.27;;;;;;;;;;4915969;29;20028;-64
2021/12/18 01:38:47;;;;;;;20.60;10.50;;;;;;;;;;4915850;29;20087;-64
2021/12/18 01:41:14;;;;;;;21.90;10.00;;;;;;;;;;4915687;29;20473;-64
2021/12/18 01:54:24;;;;;;;20.05;10.57;;;;;;;;;;4915224;29;20066;-63
2021/12/18 01:56:50;;;;;;;20.73;10.85;;;;;;;;;;4915254;29;20063;-63
2021/12/18 01:59:16;;;;;;;21.02;11.18;;;;;;;;;;4915258;29;20393;-63
2021/12/18 02:01:42;;;;;;;19.63;10.60;;;;;;;;;;4915254;29;20024;-63
2021/12/18 02:04:08;;;;;;;23.52;11.13;;;;;;;;;;4915236;29;20028;-63
2021/12/18 02:06:34;;;;;;;19.75;10.18;;;;;;;;;;4915336;29;20477;-63
2021/12/18 02:09:00;;;;;;;16.80;9.25;;;;;;;;;;4915452;29;20043;-63
2021/12/18 02:11:34;;;;;;;17.70;10.10;;;;;;;;;;4915365;29;20469;-63
2021/12/18 02:22:02;;;;;;;19.10;8.80;;;;;;;;;;4857042;29;20037;-64
2021/12/18 02:24:31;;;;;;;11.18;5.63;;;;;;;;;;4856960;29;20041;-63
2021/12/18 02:26:58;;;;;;;16.98;9.25;;;;;;;;;;4856675;29;20241;-63
2021/12/18 02:29:24;;;;;;;17.55;9.68;;;;;;;;;;4855744;29;20036;-63
2021/12/18 02:31:50;;;;;;;18.15;9.90;;;;;;;;;;4856770;29;20036;-63
2021/12/18 02:34:23;;;;;;;18.77;9.27;;;;;;;;;;4856709;29;20041;-63
2021/12/18 02:36:49;;;;;;;18.27;9.77;;;;;;;;;;4856911;29;20061;-63
2021/12/18 02:41:56;;;;;;;19.83;9.45;;;;;;;;;;4856763;29;20037;-63
2021/12/18 02:44:22;;;;;;;19.15;10.18;;;;;;;;;;4856608;29;20056;-63
2021/12/18 02:46:48;;;;;;;19.48;10.32;;;;;;;;;;4856663;29;20055;-63
2021/12/18 02:49:15;;;;;;;15.60;8.48;;;;;;;;;;4856870;29;20038;-63
2021/12/18 02:51:41;;;;;;;18.73;10.02;;;;;;;;;;4856741;29;20065;-64
2021/12/18 02:54:07;;;;;;;15.35;7.30;;;;;;;;;;4893123;29;20489;-63
2021/12/18 02:56:34;;;;;;;18.67;10.02;;;;;;;;;;4914966;29;20024;-63
2021/12/18 02:59:05;;;;;;;22.42;10.27;;;;;;;;;;4914611;29;20028;-63
2021/12/18 03:01:31;;;;;;;20.35;10.63;;;;;;;;;;4915708;29;20031;-63
2021/12/18 03:03:59;;;;;;;21.67;10.63;;;;;;;;;;4916518;29;20481;-63
2021/12/18 03:06:39;;;;;;;18.33;9.93;;;;;;;;;;4915218;29;20035;-63
2021/12/18 03:25:26;;;;;;;17.90;9.80;;;;;;;;;;4855896;29;20078;-63
2021/12/18 03:27:53;;;;;;;17.80;9.68;;;;;;;;;;4856157;29;20085;-63
2021/12/18 03:30:20;;;;;;;19.70;10.10;;;;;;;;;;4856031;29;20049;-63
2021/12/18 03:32:46;;;;;;;19.60;10.18;;;;;;;;;;4856009;29;20049;-64
2021/12/18 03:35:14;;;;;;;21.25;10.73;;;;;;;;;;4856453;29;20126;-63
2021/12/18 03:37:40;;;;;;;18.85;10.57;;;;;;;;;;4856395;29;20173;-63
2021/12/18 03:40:07;;;;;;;20.25;10.30;;;;;;;;;;4856016;29;20104;-63
2021/12/18 03:42:34;;;;;;;22.65;10.18;;;;;;;;;;4859297;29;20070;-63
2021/12/18 03:45:00;;;;;;;19.92;10.38;;;;;;;;;;4859177;29;20048;-64
2021/12/18 03:47:26;;;;;;;17.02;9.38;;;;;;;;;;4859317;29;20025;-63
2021/12/18 03:49:52;;;;;;;18.30;10.13;;;;;;;;;;4859391;29;20154;-63
2021/12/18 03:52:18;;;;;;;18.85;9.52;;;;;;;;;;4859009;29;20053;-63
2021/12/18 03:54:44;;;;;;;18.83;10.05;;;;;;;;;;4859373;29;20037;-63
2021/12/18 03:57:10;;;;;;;19.83;10.65;;;;;;;;;;4913686;29;20047;-63
2021/12/18 03:59:36;;;;;;;22.00;10.10;;;;;;;;;;4917337;29;20054;-63
2021/12/18 04:02:02;;;;;;;18.65;9.85;;;;;;;;;;4917639;29;20052;-63
2021/12/18 04:04:28;;;;;;;18.70;9.85;;;;;;;;;;4917794;29;20032;-63
2021/12/18 04:06:55;;;;;;;21.58;10.73;;;;;;;;;;4917461;29;20056;-63
2021/12/18 04:09:21;;;;;;;19.50;10.05;;;;;;;;;;4917488;29;20103;-63
2021/12/18 04:11:47;;;;;;;18.55;9.27;;;;;;;;;;4917513;29;20020;-63
2021/12/18 04:14:17;;;;;;;19.23;9.80;;;;;;;;;;4917100;29;20052;-63
2021/12/18 04:16:43;;;;;;;22.83;9.73;;;;;;;;;;4917519;29;20035;-63
2021/12/18 04:19:09;;;;;;;18.90;10.20;;;;;;;;;;4917404;29;20063;-63
2021/12/18 04:21:36;;;;;;;18.30;10.35;;;;;;;;;;4917099;29;20040;-63
2021/12/18 04:24:03;;;;;;;19.13;9.90;;;;;;;;;;4917237;29;20043;-63
2021/12/18 04:26:29;;;;;;;16.67;8.10;;;;;;;;;;4917166;29;20463;-63
2021/12/18 04:28:55;;;;;;;19.90;10.02;;;;;;;;;;4916974;29;20369;-63
2021/12/18 04:31:21;;;;;;;21.48;10.10;;;;;;;;;;4917044;29;20103;-63
2021/12/18 04:33:47;;;;;;;19.58;9.88;;;;;;;;;;4917064;29;20032;-63
2021/12/18 04:36:13;;;;;;;19.25;10.60;;;;;;;;;;4917130;29;20028;-63
2021/12/18 04:38:39;;;;;;;18.42;10.02;;;;;;;;;;4917030;29;20400;-63
2021/12/18 04:41:06;;;;;;;19.55;9.43;;;;;;;;;;4916939;29;20028;-63
2021/12/18 04:43:32;;;;;;;20.58;10.00;;;;;;;;;;4916696;29;20063;-63
2021/12/18 04:45:58;;;;;;;23.73;10.68;;;;;;;;;;4916680;29;20028;-63
2021/12/18 04:48:24;;;;;;;21.88;11.18;;;;;;;;;;4916662;29;20107;-63
2021/12/18 04:50:50;;;;;;;18.48;10.30;;;;;;;;;;4916420;29;20056;-63
2021/12/18 04:53:16;;;;;;;19.17;10.27;;;;;;;;;;4915837;29;20080;-63
2021/12/18 04:55:42;;;;;;;18.60;10.15;;;;;;;;;;4916563;29;20028;-63
2021/12/18 04:58:09;;;;;;;19.88;9.65;;;;;;;;;;4916486;29;20039;-63
2021/12/18 05:00:39;;;;;;;19.05;9.82;;;;;;;;;;4916260;29;20031;-63
2021/12/18 05:03:08;;;;;;;17.85;9.18;;;;;;;;;;4916312;29;20036;-64
2021/12/18 05:05:34;;;;;;;18.88;9.45;;;;;;;;;;4916294;29;20024;-63
2021/12/18 05:08:01;;;;;;;17.27;9.40;;;;;;;;;;4916379;29;20422;-63
2021/12/18 05:10:27;;;;;;;18.73;10.10;;;;;;;;;;4916160;29;20024;-63
2021/12/18 05:12:53;;;;;;;17.33;9.27;;;;;;;;;;4915788;29;20060;-63
2021/12/18 05:15:19;;;;;;;18.90;9.45;;;;;;;;;;4916107;29;20127;-63
2021/12/18 05:17:45;;;;;;;18.80;9.05;;;;;;;;;;4916238;29;20459;-63
2021/12/18 05:20:12;;;;;;;18.20;8.75;;;;;;;;;;4916246;29;20028;-63
2021/12/18 05:22:38;;;;;;;15.80;8.57;;;;;;;;;;4916206;29;20042;-63
2021/12/18 05:25:05;;;;;;;16.55;8.27;;;;;;;;;;4916077;29;20036;-64
2021/12/18 05:27:32;;;;;;;17.42;8.43;;;;;;;;;;4916087;29;20040;-63
2021/12/18 05:29:58;;;;;;;18.98;8.57;;;;;;;;;;4915791;29;20469;-63
2021/12/18 05:32:24;;;;;;;18.73;9.63;;;;;;;;;;4915503;29;20060;-64
2021/12/18 05:34:50;;;;;;;17.95;8.63;;;;;;;;;;4915903;29;20036;-62
2021/12/18 05:37:31;;;;;;;17.50;10.27;;;;;;;;;;4915985;29;20461;-63
2021/12/18 05:40:00;;;;;;;17.25;9.05;;;;;;;;;;4915800;29;20492;-63
2021/12/18 05:42:26;;;;;;;17.75;9.23;;;;;;;;;;4915689;29;20047;-62
2021/12/18 05:44:52;;;;;;;17.00;9.18;;;;;;;;;;4915615;29;20035;-63
2021/12/18 05:47:19;;;;;;;15.93;8.10;;;;;;;;;;4915790;29;20433;-62
2021/12/18 05:49:45;;;;;;;17.15;8.52;;;;;;;;;;4915678;29;20123;-63
2021/12/18 05:52:11;;;;;;;18.73;8.82;;;;;;;;;;4915459;29;20060;-63
2021/12/18 05:54:37;;;;;;;14.75;8.15;;;;;;;;;;4915572;29;20043;-62
2021/12/18 05:57:05;;;;;;;17.50;8.82;;;;;;;;;;4915568;29;20031;-63
2021/12/18 05:59:31;;;;;;;15.32;8.30;;;;;;;;;;4915288;29;20036;-63
2021/12/18 06:01:57;;;;;;;16.20;8.70;;;;;;;;;;4915308;29;20049;-63
2021/12/18 06:04:23;;;;;;;19.58;9.50;;;;;;;;;;4915555;29;20033;-63
2021/12/18 06:06:49;;;;;;;16.77;8.80;;;;;;;;;;4915564;29;20035;-63
2021/12/18 06:09:16;;;;;;;16.95;8.15;;;;;;;;;;4915259;29;20035;-62
2021/12/18 06:11:42;;;;;;;18.27;9.18;;;;;;;;;;4915218;29;20024;-63
2021/12/18 06:14:08;;;;;;;15.52;8.00;;;;;;;;;;4914965;29;20060;-62
2021/12/18 06:16:35;;;;;;;14.52;8.27;;;;;;;;;;4915328;29;20464;-62
2021/12/18 06:19:01;;;;;;;13.80;8.07;;;;;;;;;;4914745;29;20453;-62
2021/12/18 06:21:27;;;;;;;16.55;8.00;;;;;;;;;;4915269;29;20389;-62
2021/12/18 06:23:54;;;;;;;17.65;8.80;;;;;;;;;;4914917;29;20396;-62
2021/12/18 06:26:21;;;;;;;21.67;11.80;;;;;;;;;;4915153;29;20043;-63
2021/12/18 06:28:47;;;;;;;15.75;8.32;;;;;;;;;;4914959;29;20051;-62
2021/12/18 06:31:13;;;;;;;15.90;8.85;;;;;;;;;;4914979;29;20043;-62
2021/12/18 06:33:40;;;;;;;16.90;8.50;;;;;;;;;;4914743;29;20036;-61
2021/12/18 06:36:06;;;;;;;18.90;8.50;;;;;;;;;;4915086;29;20051;-64
2021/12/18 06:38:32;;;;;;;21.33;9.35;;;;;;;;;;4915003;29;20536;-63
2021/12/18 06:40:58;;;;;;;16.27;9.30;;;;;;;;;;4915113;29;20408;-64
2021/12/18 06:43:24;;;;;;;23.55;10.75;;;;;;;;;;4914854;29;20059;-64
2021/12/18 06:45:50;;;;;;;18.30;8.88;;;;;;;;;;4915000;29;20032;-64
2021/12/18 06:48:16;;;;;;;16.33;8.80;;;;;;;;;;4914828;29;20043;-64
2021/12/18 06:50:42;;;;;;;14.77;8.13;;;;;;;;;;4914671;29;20040;-63
2021/12/18 06:53:08;;;;;;;19.15;8.82;;;;;;;;;;4914887;29;20052;-64
2021/12/18 06:55:35;;;;;;;18.65;9.32;;;;;;;;;;4914991;29;20028;-64
2021/12/18 06:58:01;;;;;;;22.75;9.77;;;;;;;;;;4914610;29;20374;-63
2021/12/18 07:00:28;;;;;;;21.95;7.93;;;;;;;;;;4915023;29;20044;-63
2021/12/18 07:02:54;;;;;;;18.30;9.27;;;;;;;;;;4914661;29;20107;-63
2021/12/18 07:05:20;;;;;;;15.00;8.02;;;;;;;;;;4914855;29;20028;-63
2021/12/18 07:07:46;;;;;;;17.48;10.25;;;;;;;;;;4914673;29;20432;-64
2021/12/18 07:10:13;;;;;;;20.48;9.95;;;;;;;;;;4914618;29;20119;-64
2021/12/18 07:12:39;;;;;;;16.77;8.77;;;;;;;;;;4914347;29;20223;-64
2021/12/18 07:15:06;;;;;;;19.48;8.95;;;;;;;;;;4914764;29;20668;-64
2021/12/18 07:17:32;;;;;;;21.48;9.75;;;;;;;;;;4918270;29;20047;-64
2021/12/18 07:19:58;;;;;;;28.70;13.30;;;;;;;;;;4918827;29;20647;-64
2021/12/18 07:22:24;;;;;;;22.83;11.32;;;;;;;;;;4917209;29;20115;-63
2021/12/18 07:24:50;;;;;;;21.80;10.48;;;;;;;;;;4916989;29;20035;-64
2021/12/18 07:27:16;;;;;;;30.38;15.45;;;;;;;;;;4916291;29;20134;-62
2021/12/18 07:29:42;;;;;;;24.70;12.82;;;;;;;;;;4917554;29;20421;-63
2021/12/18 07:32:09;;;;;;;22.27;11.80;;;;;;;;;;4917252;29;20032;-63
2021/12/18 07:34:35;;;;;;;22.23;12.07;;;;;;;;;;4917226;29;20126;-63
2021/12/18 07:37:01;;;;;;;22.50;10.65;;;;;;;;;;4917823;29;20028;-63
2021/12/18 07:39:27;;;;;;;19.67;11.02;;;;;;;;;;4917986;29;20038;-64
2021/12/18 07:41:53;;;;;;;19.67;9.10;;;;;;;;;;4916683;29;20373;-64
2021/12/18 07:44:19;;;;;;;20.38;9.93;;;;;;;;;;4917197;29;20028;-64
2021/12/18 07:46:45;;;;;;;21.83;10.43;;;;;;;;;;4917141;29;20040;-64
2021/12/18 07:49:12;;;;;;;19.10;10.15;;;;;;;;;;4917828;29;20020;-64
2021/12/18 07:51:38;;;;;;;34.90;17.77;;;;;;;;;;4917526;29;20039;-63
2021/12/18 07:54:05;;;;;;;20.88;10.90;;;;;;;;;;4917301;29;20048;-63
2021/12/18 07:56:31;;;;;;;19.85;9.32;;;;;;;;;;4915919;29;20476;-64
2021/12/18 07:58:57;;;;;;;20.88;9.60;;;;;;;;;;4903339;29;20036;-63
2021/12/18 08:01:23;;;;;;;20.05;9.43;;;;;;;;;;4936646;29;20448;-64
2021/12/18 08:03:50;;;;;;;20.75;9.30;;;;;;;;;;4936674;29;20074;-62
2021/12/18 08:06:16;;;;;;;21.52;9.68;;;;;;;;;;4936484;29;20024;-64
2021/12/18 08:08:42;;;;;;;16.50;7.70;;;;;;;;;;4936528;29;20043;-64
2021/12/18 08:11:08;;;;;;;15.05;6.70;;;;;;;;;;4936407;29;20030;-64
2021/12/18 08:13:34;;;;;;;10.60;5.47;;;;;;;;;;4935560;29;20161;-63
2021/12/18 08:16:00;;;;;;;21.30;8.75;;;;;;;;;;4936202;29;20444;-63
2021/12/18 08:18:26;;;;;;;11.27;4.20;;;;;;;;;;4936283;29;20102;-65
2021/12/18 08:20:52;;;;;;;18.50;8.15;;;;;;;;;;4935949;29;20376;-62
2021/12/18 08:23:18;;;;;;;13.07;5.95;;;;;;;;;;4935644;29;20035;-63
2021/12/18 08:25:44;;;;;;;11.98;5.50;;;;;;;;;;4935806;29;20059;-62
2021/12/18 08:28:10;;;;;;;17.73;8.38;;;;;;;;;;4935551;29;20035;-63
2021/12/18 08:30:37;;;;;;;14.18;6.60;;;;;;;;;;4922028;29;20082;-64
2021/12/18 08:33:04;;;;;;;20.90;8.98;;;;;;;;;;4915728;29;20083;-66
2021/12/18 08:35:30;;;;;;;9.98;4.50;;;;;;;;;;4916070;29;20032;-65
2021/12/18 08:37:57;;;;;;;11.75;5.20;;;;;;;;;;4916617;29;20051;-66
2021/12/18 08:40:24;;;;;;;12.75;5.45;;;;;;;;;;4916515;29;20039;-65
2021/12/18 08:42:50;;;;;;;15.10;7.45;;;;;;;;;;4916627;29;20032;-64
2021/12/18 08:45:17;;;;;;;9.35;4.85;;;;;;;;;;4915981;29;20034;-64
2021/12/18 08:47:43;;;;;;;12.10;5.72;;;;;;;;;;4916338;29;20480;-65
2021/12/18 08:50:10;;;;;;;8.98;3.72;;;;;;;;;;4916160;29;20071;-65
2021/12/18 08:52:37;;;;;;;11.18;5.72;;;;;;;;;;4916131;29;20103;-65
2021/12/18 08:55:04;;;;;;;8.77;4.95;;;;;;;;;;4915647;29;20502;-66
2021/12/18 08:57:30;;;;;;;9.95;5.03;;;;;;;;;;4916591;29;20028;-66
2021/12/18 08:59:56;;;;;;;8.75;4.07;;;;;;;;;;4915924;29;20115;-67
2021/12/18 09:02:22;;;;;;;12.57;5.82;;;;;;;;;;4916046;29;20020;-66
2021/12/18 09:04:48;;;;;;;11.00;5.05;;;;;;;;;;4916142;29;20036;-64
2021/12/18 09:07:15;;;;;;;17.15;6.88;;;;;;;;;;4915854;29;20023;-65
2021/12/18 09:09:41;;;;;;;15.45;7.47;;;;;;;;;;4915768;29;20086;-66
2021/12/18 09:12:08;;;;;;;15.57;6.03;;;;;;;;;;4915612;29;20434;-66
2021/12/18 09:14:34;;;;;;;17.90;6.97;;;;;;;;;;4915662;29;20575;-64
2021/12/18 09:17:00;;;;;;;17.45;8.52;;;;;;;;;;4915916;29;20494;-64
2021/12/18 09:19:26;;;;;;;8.15;3.33;;;;;;;;;;4913921;29;20381;-64
2021/12/18 09:21:52;;;;;;;10.32;5.35;;;;;;;;;;4915606;29;20103;-62
2021/12/18 09:24:20;;;;;;;9.80;4.00;;;;;;;;;;4915388;29;20135;-63
2021/12/18 09:26:46;;;;;;;8.85;3.83;;;;;;;;;;4915453;29;20027;-64
2021/12/18 09:29:13;;;;;;;15.70;7.53;;;;;;;;;;4915398;29;20040;-63
2021/12/18 09:31:39;;;;;;;24.75;10.48;;;;;;;;;;4915173;29;20511;-63
2021/12/18 09:34:05;;;;;;;19.27;8.68;;;;;;;;;;4914820;29;20040;-63
2021/12/18 09:36:31;;;;;;;10.70;4.85;;;;;;;;;;4915268;29;20119;-63
2021/12/18 09:38:57;;;;;;;8.88;4.05;;;;;;;;;;4914780;29;20036;-64
2021/12/18 09:41:24;;;;;;;13.50;7.32;;;;;;;;;;4914842;29;20016;-63
2021/12/18 09:43:50;;;;;;;25.90;12.82;;;;;;;;;;4915047;29;20473;-63
2021/12/18 09:46:16;;;;;;;14.93;6.53;;;;;;;;;;4915081;29;20131;-63
2021/12/18 09:48:43;;;;;;;16.17;8.02;;;;;;;;;;4914607;29;20136;-63
2021/12/18 09:51:18;;;;;;;13.43;6.97;;;;;;;;;;4915275;29;20036;-63
2021/12/18 09:53:44;;;;;;;10.63;5.50;;;;;;;;;;4914685;29;20036;-62
2021/12/18 09:56:10;;;;;;;8.75;3.97;;;;;;;;;;4914766;29;20511;-65
2021/12/18 09:58:36;;;;;;;8.13;3.85;;;;;;;;;;4914164;29;20032;-63
2021/12/18 10:01:03;;;;;;;10.45;5.43;;;;;;;;;;4914714;29;20083;-63
2021/12/18 10:03:51;;;;;;;13.63;6.72;;;;;;;;;;4914808;29;20035;-63
2021/12/18 10:06:40;;;;;;;6.90;3.55;;;;;;;;;;4914633;29;20020;-63
2021/12/18 10:09:06;;;;;;;13.20;5.65;;;;;;;;;;4914189;29;20032;-63
2021/12/18 10:11:32;;;;;;;12.82;5.15;;;;;;;;;;4914582;29;20035;-69
2021/12/18 10:14:01;;;;;;;6.18;3.17;;;;;;;;;;4914634;29;20048;-64
2021/12/18 10:16:28;;;;;;;12.15;4.93;;;;;;;;;;4914396;29;20163;-63
2021/12/18 10:18:55;;;;;;;9.85;3.92;;;;;;;;;;4914072;29;20059;-64
2021/12/18 10:21:23;;;;;;;6.18;2.65;;;;;;;;;;4914607;29;20483;-63
2021/12/18 10:23:51;;;;;;;5.93;3.13;;;;;;;;;;4914382;29;20047;-63
2021/12/18 10:26:35;;;;;;;6.20;3.78;;;;;;;;;;4914579;29;20035;-62
2021/12/18 10:29:01;;;;;;;10.18;4.78;;;;;;;;;;4914434;29;20029;-64
2021/12/18 10:31:41;;;;;;;10.60;4.50;;;;;;;;;;4913827;29;20103;-64
2021/12/18 10:34:17;;;;;;;9.82;4.22;;;;;;;;;;4914155;29;20044;-65
2021/12/18 10:37:03;;;;;;;12.10;6.07;;;;;;;;;;4914510;29;20051;-66
2021/12/18 10:39:29;;;;;;;8.35;3.88;;;;;;;;;;4912880;29;20084;-65
2021/12/18 10:41:55;;;;;;;8.35;3.80;;;;;;;;;;4912797;29;20040;-67
2021/12/18 10:44:21;;;;;;;9.10;4.65;;;;;;;;;;4914125;29;20040;-65
2021/12/18 10:46:47;;;;;;;8.25;3.35;;;;;;;;;;4912776;29;20469;-65
2021/12/18 10:49:15;;;;;;;16.35;10.85;;;;;;;;;;4913854;29;20036;-63
2021/12/18 10:51:42;;;;;;;11.23;6.15;;;;;;;;;;4916636;29;20031;-62
2021/12/18 10:54:08;;;;;;;6.85;3.30;;;;;;;;;;4918449;29;20496;-61
2021/12/18 10:56:35;;;;;;;9.40;3.88;;;;;;;;;;4918558;29;20036;-63
2021/12/18 10:59:02;;;;;;;8.52;4.78;;;;;;;;;;4918570;29;20036;-62
2021/12/18 11:01:29;;;;;;;9.48;4.45;;;;;;;;;;4918212;29;20020;-63
2021/12/18 11:03:55;;;;;;;12.68;6.00;;;;;;;;;;4917630;29;20032;-65
2021/12/18 11:06:22;;;;;;;9.23;4.78;;;;;;;;;;4918709;29;20035;-66
2021/12/18 11:09:09;;;;;;;13.55;5.97;;;;;;;;;;4918350;29;20060;-64
2021/12/18 11:14:09;;;;;;;7.43;4.07;;;;;;;;;;4918426;29;20051;-66
2021/12/18 11:16:36;;;;;;;8.38;4.03;;;;;;;;;;4927234;29;20051;-64
2021/12/18 11:19:06;;;;;;;13.30;6.00;;;;;;;;;;4937215;29;20555;-64
2021/12/18 11:21:33;;;;;;;12.43;6.35;;;;;;;;;;4937059;29;20039;-67
2021/12/18 11:24:01;;;;;;;17.08;7.43;;;;;;;;;;4936817;29;20521;-64
2021/12/18 11:26:31;;;;;;;11.57;4.53;;;;;;;;;;4936727;29;20055;-64
2021/12/18 11:28:58;;;;;;;13.52;6.25;;;;;;;;;;4936737;29;20114;-65
2021/12/18 11:31:26;;;;;;;11.02;4.80;;;;;;;;;;4936850;29;20112;-65
2021/12/18 11:33:52;;;;;;;11.23;4.90;;;;;;;;;;4936227;29;20055;-64
2021/12/18 11:36:18;;;;;;;9.85;4.50;;;;;;;;;;4936868;29;20032;-67
2021/12/18 11:38:45;;;;;;;6.30;3.55;;;;;;;;;;4936873;29;20027;-66
2021/12/18 11:41:18;;;;;;;16.92;7.68;;;;;;;;;;4936734;29;20028;-64
2021/12/18 11:43:46;;;;;;;9.48;4.70;;;;;;;;;;4936827;29;20387;-65
2021/12/18 11:46:27;;;;;;;8.85;4.07;;;;;;;;;;4936807;29;20055;-65
2021/12/18 11:49:05;;;;;;;11.65;6.20;;;;;;;;;;4936571;29;20418;-65
2021/12/18 11:51:31;;;;;;;15.23;6.47;;;;;;;;;;4936806;29;20027;-63
2021/12/18 11:53:58;;;;;;;13.05;6.88;;;;;;;;;;4936564;29;20047;-64
2021/12/18 11:56:24;;;;;;;11.10;5.38;;;;;;;;;;4935357;29;20130;-63
2021/12/18 11:58:50;;;;;;;11.75;6.25;;;;;;;;;;4936494;29;20042;-64
2021/12/18 12:01:25;;;;;;;17.40;7.65;;;;;;;;;;4936157;29;20571;-66
2021/12/18 12:03:51;;;;;;;12.57;5.95;;;;;;;;;;4936358;29;20030;-65
2021/12/18 12:06:20;;;;;;;11.73;5.70;;;;;;;;;;4936561;29;20023;-63
2021/12/18 12:08:49;;;;;;;12.10;6.50;;;;;;;;;;4936515;29;20522;-63
2021/12/18 12:11:18;;;;;;;11.05;5.72;;;;;;;;;;4936235;29;20024;-64
2021/12/18 12:14:03;;;;;;;16.25;8.13;;;;;;;;;;4936033;29;20137;-65
2021/12/18 12:16:44;;;;;;;16.88;8.73;;;;;;;;;;4936161;29;20467;-63
2021/12/18 12:19:21;;;;;;;14.88;7.18;;;;;;;;;;4935777;29;20392;-63
2021/12/18 12:21:48;;;;;;;10.05;4.80;;;;;;;;;;4935789;29;20170;-64
2021/12/18 12:24:15;;;;;;;13.57;5.38;;;;;;;;;;4935794;29;20490;-64
2021/12/18 12:26:42;;;;;;;27.95;13.88;;;;;;;;;;4936391;29;20051;-63
2021/12/18 12:29:08;;;;;;;17.00;8.48;;;;;;;;;;4935395;29;20032;-63
2021/12/18 12:31:35;;;;;;;12.48;6.53;;;;;;;;;;4936268;29;20032;-63
2021/12/18 12:34:19;;;;;;;10.75;6.28;;;;;;;;;;4935672;29;20031;-63
2021/12/18 12:36:46;;;;;;;9.98;5.63;;;;;;;;;;4935845;29;20035;-63
2021/12/18 12:39:16;;;;;;;10.05;5.15;;;;;;;;;;4935964;29;20039;-64
2021/12/18 12:41:50;;;;;;;8.15;4.38;;;;;;;;;;4935596;29;20930;-63
2021/12/18 12:44:31;;;;;;;14.43;7.20;;;;;;;;;;4935609;29;20531;-63
2021/12/18 12:47:16;;;;;;;10.65;4.60;;;;;;;;;;4935547;29;20115;-63
2021/12/18 12:49:42;;;;;;;9.80;5.68;;;;;;;;;;4935648;29;20035;-63
2021/12/18 12:52:10;;;;;;;12.32;6.43;;;;;;;;;;4935392;29;20035;-64
2021/12/18 12:54:55;;;;;;;18.42;9.48;;;;;;;;;;4935634;29;20119;-63
2021/12/18 12:57:24;;;;;;;33.88;14.50;;;;;;;;;;4935277;29;20499;-64
2021/12/18 12:59:51;;;;;;;24.20;11.75;;;;;;;;;;4935317;29;20032;-63
2021/12/18 13:02:17;;;;;;;15.60;7.82;;;;;;;;;;4935362;29;20035;-63
2021/12/18 13:04:43;;;;;;;18.42;8.63;;;;;;;;;;4935119;29;20476;-63
2021/12/18 13:07:10;;;;;;;12.98;6.75;;;;;;;;;;4935395;29;20031;-64
2021/12/18 13:09:43;;;;;;;19.50;9.40;;;;;;;;;;4935317;29;20028;-65
2021/12/18 13:12:10;;;;;;;16.15;7.38;;;;;;;;;;4935190;29;20035;-65
2021/12/18 13:14:37;;;;;;;10.00;4.35;;;;;;;;;;4934444;29;20138;-64
2021/12/18 13:17:16;;;;;;;10.90;3.60;;;;;;;;;;4935061;29;20023;-64
2021/12/18 13:19:54;;;;;;;9.65;4.65;;;;;;;;;;4935074;29;20028;-63
2021/12/18 13:22:27;;;;;;;15.27;7.30;;;;;;;;;;4934680;29;20115;-66
2021/12/18 13:25:12;;;;;;;12.32;5.70;;;;;;;;;;4934989;29;20024;-64
2021/12/18 13:27:40;;;;;;;14.57;6.97;;;;;;;;;;4934607;29;20476;-63
2021/12/18 13:30:14;;;;;;;41.03;18.02;;;;;;;;;;4934428;29;20079;-64
2021/12/18 13:33:00;;;;;;;16.63;7.63;;;;;;;;;;4934304;29;20709;-63
2021/12/18 13:35:27;;;;;;;11.45;5.63;;;;;;;;;;4934874;29;20082;-64
2021/12/18 13:38:12;;;;;;;12.30;5.93;;;;;;;;;;4934559;29;20024;-64
2021/12/18 13:40:38;;;;;;;11.10;4.97;;;;;;;;;;4934292;29;20027;-64
2021/12/18 13:43:05;;;;;;;14.18;6.38;;;;;;;;;;4934096;29;20059;-67
2021/12/18 13:45:31;;;;;;;9.57;4.15;;;;;;;;;;4933429;29;20035;-64
2021/12/18 13:48:01;;;;;;;16.05;6.80;;;;;;;;;;4933308;29;20039;-67
2021/12/18 13:50:27;;;;;;;36.83;14.38;;;;;;;;;;4933876;29;20039;-65
2021/12/18 13:53:04;;;;;;;30.52;12.73;;;;;;;;;;4934245;29;20067;-65
2021/12/18 13:55:32;;;;;;;16.00;7.68;;;;;;;;;;4934116;29;20373;-64
2021/12/18 13:57:59;;;;;;;13.77;6.47;;;;;;;;;;4934227;29;20488;-64
2021/12/18 14:00:25;;;;;;;13.95;7.00;;;;;;;;;;4934155;29;20039;-66
2021/12/18 14:02:51;;;;;;;11.52;5.00;;;;;;;;;;4934254;29;20484;-67
2021/12/18 14:05:17;;;;;;;45.83;18.05;;;;;;;;;;4934030;29;20546;-66
2021/12/18 14:07:44;;;;;;;16.65;7.15;;;;;;;;;;4934077;29;20031;-64
2021/12/18 14:10:11;;;;;;;16.15;7.70;;;;;;;;;;4933945;29;20028;-66
2021/12/18 14:12:37;;;;;;;12.98;6.22;;;;;;;;;;4933912;29;20526;-65
2021/12/18 14:15:03;;;;;;;24.50;9.60;;;;;;;;;;4934181;29;20035;-64
2021/12/18 14:17:34;;;;;;;32.63;13.70;;;;;;;;;;4934316;29;20047;-64
2021/12/18 14:20:06;;;;;;;44.13;16.57;;;;;;;;;;4934038;29;20020;-67
2021/12/18 14:22:32;;;;;;;31.00;11.13;;;;;;;;;;4933436;29;20392;-66
2021/12/18 14:25:11;;;;;;;21.20;8.05;;;;;;;;;;4933944;29;20055;-64
2021/12/18 14:27:57;;;;;;;21.05;9.25;;;;;;;;;;4934170;29;20034;-65
2021/12/18 14:30:25;;;;;;;28.55;12.35;;;;;;;;;;4933709;29;20042;-63
2021/12/18 14:32:53;;;;;;;47.78;20.20;;;;;;;;;;4933783;29;20094;-65
2021/12/18 14:35:19;;;;;;;16.92;8.05;;;;;;;;;;4934046;29;20032;-63
2021/12/18 14:37:53;;;;;;;17.08;8.25;;;;;;;;;;4933594;29;20429;-64
2021/12/18 14:40:20;;;;;;;23.50;10.65;;;;;;;;;;4933953;29;20381;-65
2021/12/18 14:42:54;;;;;;;19.65;9.45;;;;;;;;;;4933967;29;20543;-63
2021/12/18 14:45:29;;;;;;;19.02;9.82;;;;;;;;;;4933982;29;20035;-64
2021/12/18 14:47:59;;;;;;;18.95;8.27;;;;;;;;;;4933795;29;20027;-63
2021/12/18 14:50:27;;;;;;;18.13;8.80;;;;;;;;;;4933382;29;20055;-65
2021/12/18 14:52:55;;;;;;;14.88;7.40;;;;;;;;;;4933561;29;20044;-65
2021/12/18 14:55:27;;;;;;;17.40;10.00;;;;;;;;;;4933723;29;20059;-64
2021/12/18 14:57:56;;;;;;;19.80;9.52;;;;;;;;;;4933644;29;20046;-66
2021/12/18 15:00:39;;;;;;;19.92;9.43;;;;;;;;;;4933537;29;20424;-66
2021/12/18 15:03:14;;;;;;;16.92;8.57;;;;;;;;;;4933398;29;20090;-63
2021/12/18 15:05:44;;;;;;;21.60;10.55;;;;;;;;;;4933538;29;20039;-63
2021/12/18 15:08:15;;;;;;;15.52;8.55;;;;;;;;;;4933595;29;20066;-63
2021/12/18 15:10:55;;;;;;;15.95;8.40;;;;;;;;;;4933598;29;20055;-64
2021/12/18 15:13:22;;;;;;;17.75;8.85;;;;;;;;;;4933437;29;20089;-63
2021/12/18 15:16:04;;;;;;;19.55;10.20;;;;;;;;;;4933317;29;20055;-64
2021/12/18 15:18:30;;;;;;;;;;;;;;;;;;4932892;29;20036;-63
2021/12/18 15:20:56;;;;;;;20.92;9.68;;;;;;;;;;4932873;29;19922;-67
2021/12/18 15:23:22;;;;;;;22.85;10.30;;;;;;;;;;4933473;29;20090;-62